フランクフルト国際空港の過去48時間の天気

フランクフルト国際空港 (Frankfurt / M-Flughafen)

現在時刻: 7/2 14:13 CEST (7/2 12:13 UTC) 以下の時間は現地時間です。

過去48時間のMETAR気象情報
時間 風向 風速(m/s) 視程 気温(℃) 湿度(%) 気圧(hPa) 天気現象
2 13:50 西南西 7 10km以上 26 37 1011
2 13:20 南西 8 10km以上 26 39 1011
2 12:50 南西 7 10km以上 26 37 1011
2 12:20 西南西 6 10km以上 25 41 1011
2 11:50 西南西 5 10km以上 25 44 1011
2 11:20 5 10km以上 24 50 1011 周辺でしゅう雨
2 10:50 南南西 4 10km以上 23 61 1011
2 10:20 4 10km以上 22 65 1011
2 09:50 4 10km以上 21 69 1011
2 09:20 5 10km以上 21 73 1012
2 08:50 4 10km以上 20 78 1012
2 08:20 3 10km以上 19 88 1011
2 07:50 2 10km以上 19 83 1011
2 07:20 南南東 2 10km以上 18 88 1011
2 06:50 南南東 1 10km以上 18 88 1011 弱い雨
2 06:20 南南東 1 10km以上 17 94 1011 周辺でしゅう雨
2 05:50 不定 1 10km以上 17 94 1011
2 05:20 2 10km以上 17 94 1011
2 04:50 南西 2 10km以上 17 94 1011
2 04:20 不定 1 10km以上 17 94 1011
2 03:50 南南東 2 10km以上 17 94 1011
2 03:20 西 3 10km以上 17 94 1011
2 02:50 不定 1 10km以上 17 94 1011
2 02:20 西 6 9000m 18 83 1011 しゅう雨
2 01:50 北西 5 10km以上 19 73 1010 弱いしゅう雨
2 01:20 北北西 7 10km以上 20 68 1010
2 00:50 南西 3 10km以上 22 65 1009
2 00:20 南南西 4 10km以上 22 65 1009
1 23:50 南南西 4 10km以上 22 65 1009
1 23:20 南南西 3 10km以上 22 65 1009
1 22:50 3 10km以上 22 60 1009
1 22:20 南南西 3 10km以上 23 57 1009
1 21:50 西南西 3 10km以上 24 54 1008
1 21:20 西南西 4 10km以上 24 54 1008
1 20:50 西南西 6 10km以上 25 50 1008
1 20:20 西南西 6 10km以上 26 48 1008
1 19:50 西南西 6 10km以上 26 48 1008
1 19:20 西南西 7 10km以上 26 48 1008
1 18:50 西南西 8 10km以上 27 45 1007
1 18:20 西南西 8 10km以上 27 45 1008
1 17:50 西南西 8 10km以上 26 48 1008
1 17:20 西 8 10km以上 26 48 1008
1 16:50 西南西 7 10km以上 27 45 1008
1 16:20 南西 8 10km以上 27 45 1008
1 15:50 南西 8 10km以上 28 42 1008
1 15:20 南西 8 10km以上 28 45 1008
1 14:50 南西 8 10km以上 27 45 1008
1 14:20 南西 8 10km以上 27 48 1008
1 13:50 南南西 8 10km以上 28 45 1008
1 13:20 南西 8 10km以上 25 50 1008
1 12:50 南南西 7 10km以上 26 48 1009
1 12:20 南南西 7 10km以上 26 51 1009
1 11:50 南西 8 10km以上 24 54 1009
1 11:20 南南西 6 10km以上 24 54 1009
1 10:50 南南西 7 10km以上 23 57 1009
1 10:20 南南西 6 10km以上 22 60 1010
1 09:50 5 10km以上 22 60 1010
1 09:20 南西 4 10km以上 21 60 1010
1 08:50 南南西 3 10km以上 20 68 1010
1 08:20 南南西 3 10km以上 19 68 1010
1 07:50 南西 2 10km以上 18 73 1010
1 07:20 南西 2 10km以上 17 77 1010
1 06:50 南西 2 10km以上 16 82 1010
1 06:20 南南西 2 10km以上 15 82 1010
1 05:50 南南西 1 10km以上 14 88 1010
1 05:20 南西 2 10km以上 14 88 1010
1 04:50 3 10km以上 14 88 1010
1 04:20 2 10km以上 15 82 1010
1 03:50 西南西 2 10km以上 15 82 1010
1 03:20 西南西 2 10km以上 15 82 1010
1 02:50 南南西 3 10km以上 15 82 1010
1 02:20 南南西 2 10km以上 16 77 1010
1 01:50 2 10km以上 17 72 1011
1 01:20 南南西 3 10km以上 17 72 1011
1 00:50 南南西 3 10km以上 18 68 1011
1 00:20 南南西 3 10km以上 17 72 1011
30 23:50 南南西 4 10km以上 18 64 1011
30 23:20 南西 4 10km以上 19 60 1011
30 22:50 南西 5 10km以上 19 60 1011
30 22:20 南西 5 10km以上 20 56 1011
30 21:50 西南西 6 10km以上 20 56 1011
30 21:20 南西 5 10km以上 21 53 1011
30 20:50 西南西 5 10km以上 21 49 1011
30 20:20 西南西 7 10km以上 22 46 1011
30 19:50 南西 7 10km以上 22 46 1011
30 19:20 南西 7 10km以上 22 50 1011
30 18:50 南西 8 10km以上 22 46 1011
30 18:20 南西 8 10km以上 23 44 1011
30 17:50 南西 8 10km以上 23 47 1011
30 17:20 南西 6 10km以上 22 46 1011
30 16:50 西南西 8 10km以上 22 50 1011
30 16:20 南西 8 10km以上 22 50 1012
30 15:50 南西 7 10km以上 22 50 1012
30 15:20 南西 7 10km以上 21 49 1012
30 14:50 南南西 5 10km以上 20 53 1012
30 14:20 南西 6 10km以上 21 49 1012
EDDF 021150Z 24013KT 200V280 CAVOK 26/10 Q1011 BECMG 25015G30KT
EDDF 021120Z 23015KT 180V270 9999 SCT060TCU 26/11 Q1011 NOSIG
EDDF 021050Z 23014G24KT 190V270 9999 SCT060TCU 26/10 Q1011 NOSIG
EDDF 021020Z 24012KT 210V270 9999 SCT050TCU 25/11 Q1011 TEMPO 26015G25KT
EDDF 020950Z 24010KT 210V280 9999 SCT045TCU 25/12 Q1011 NOSIG
EDDF 020920Z 17009KT 140V210 9999 VCSH SCT038TCU 24/13 Q1011 NOSIG
EDDF 020850Z 20008KT 160V230 9999 SCT030TCU 23/15 Q1011 NOSIG
EDDF 020820Z 18008KT 120V220 9999 SCT028TCU 22/15 Q1011 NOSIG
EDDF 020750Z 18008KT 150V230 9999 SCT019 21/15 Q1011 NOSIG
EDDF 020720Z 17009KT 140V220 9999 SCT017 21/16 Q1012 NOSIG
EDDF 020650Z 19008KT 160V220 9999 FEW014 SCT025 20/16 Q1012 NOSIG
EDDF 020620Z 18005KT 140V220 9999 FEW012 SCT025 19/17 Q1011 NOSIG
EDDF 020550Z 17003KT 140V220 9999 FEW012 19/16 Q1011 NOSIG
EDDF 020520Z 16003KT 100V190 9999 FEW010 18/16 Q1011 NOSIG
EDDF 020450Z 15002KT 9999 -RA FEW010 18/16 Q1011 NOSIG
EDDF 020420Z 15002KT 9999 VCSH FEW020TCU 17/16 Q1011 NOSIG
EDDF 020350Z VRB01KT 9999 FEW010 17/16 Q1011 NOSIG
EDDF 020320Z 17004KT 9999 FEW010 17/16 Q1011 NOSIG
EDDF 020250Z 22003KT 9999 FEW010 17/16 Q1011 NOSIG
EDDF 020220Z VRB02KT 9999 FEW025 17/16 Q1011 NOSIG
EDDF 020150Z 16003KT 9999 FEW025 17/16 Q1011 NOSIG
EDDF 020120Z 28005KT 9999 FEW010 17/16 Q1011 NOSIG
EDDF 020050Z VRB02KT 9999 FEW010 FEW025CB BKN048 17/16 Q1011 RESHRA NOSIG
EDDF 020020Z 28011KT 9000 SHRA FEW012 FEW030CB SCT035 BKN045 18/15 Q1011 BECMG NSW
EDDF 012350Z 32010KT 290V350 9999 -SHRA FEW022 FEW030CB SCT035 19/14 Q1010 NOSIG
EDDF 012320Z 33014KT 300V360 9999 FEW022 FEW030CB SCT038 20/14 Q1010 NOSIG
EDDF 012250Z 22005KT 9999 FEW025 FEW040CB 22/15 Q1009 NOSIG
EDDF 012220Z 21008KT 9999 FEW040CB 22/15 Q1009 NOSIG
EDDF 012150Z 20008KT 9999 FEW040CB 22/15 Q1009 NOSIG
EDDF 012120Z 20006KT CAVOK 22/15 Q1009 NOSIG
EDDF 012050Z 19006KT CAVOK 22/14 Q1009 NOSIG
EDDF 012020Z 20005KT CAVOK 23/14 Q1009 NOSIG
EDDF 011950Z 24006KT CAVOK 24/14 Q1008 NOSIG
EDDF 011920Z 24007KT CAVOK 24/14 Q1008 NOSIG
EDDF 011850Z 25011KT CAVOK 25/14 Q1008 NOSIG
EDDF 011820Z 25012KT CAVOK 26/14 Q1008 NOSIG
EDDF 011750Z 25012KT CAVOK 26/14 Q1008 NOSIG
EDDF 011720Z 24014KT CAVOK 26/14 Q1008 NOSIG
EDDF 011650Z 25015KT CAVOK 27/14 Q1007 NOSIG
EDDF 011620Z 25015KT 220V290 CAVOK 27/14 Q1008 NOSIG
EDDF 011550Z 24015KT 210V270 CAVOK 26/14 Q1008 NOSIG
EDDF 011520Z 26016G26KT 230V290 CAVOK 26/14 Q1008 NOSIG
EDDF 011450Z 24013KT 190V280 CAVOK 27/14 Q1008 NOSIG
EDDF 011420Z 22015KT CAVOK 27/14 Q1008 NOSIG
EDDF 011350Z 22016KT 180V240 CAVOK 28/14 Q1008 NOSIG
EDDF 011320Z 23015KT CAVOK 28/15 Q1008 NOSIG
EDDF 011250Z 22015KT 200V260 9999 SCT048 27/14 Q1008 NOSIG
EDDF 011220Z 23015KT 180V260 9999 SCT048 27/15 Q1008 NOSIG
EDDF 011150Z 21015KT 180V250 9999 SCT046 28/15 Q1008 TEMPO 23015G25KT
EDDF 011120Z 23015KT 190V250 9999 SCT045 25/14 Q1008 BECMG 23015G25KT
EDDF 011050Z 21014KT 190V250 9999 SCT042 26/14 Q1009 BECMG 23015G25KT
EDDF 011020Z 21014KT 9999 SCT040 26/15 Q1009 BECMG 23015G25KT
EDDF 010950Z 23015KT 9999 SCT040 24/14 Q1009 BECMG 23015G25KT
EDDF 010920Z 21012KT 170V240 9999 FEW033 SCT035 24/14 Q1009 BECMG 23015G25KT
EDDF 010850Z 21014KT 9999 FEW032 SCT036 23/14 Q1009 BECMG 23015G25KT
EDDF 010820Z 21011KT 9999 FEW028 BKN036 22/14 Q1010 BECMG 23015G25KT
EDDF 010750Z 19009KT 170V230 9999 FEW028 SCT036 22/14 Q1010 NOSIG
EDDF 010720Z 22008KT 160V260 9999 FEW028 SCT038 21/13 Q1010 NOSIG
EDDF 010650Z 20005KT 9999 FEW024 BKN038 20/14 Q1010 NOSIG
EDDF 010620Z 21005KT 180V270 9999 BKN040 19/13 Q1010 NOSIG
EDDF 010550Z 22004KT 190V250 9999 SCT040 18/13 Q1010 NOSIG
EDDF 010520Z 22004KT 190V260 CAVOK 17/13 Q1010 NOSIG
EDDF 010450Z 22004KT CAVOK 16/13 Q1010 NOSIG
EDDF 010420Z 20004KT CAVOK 15/12 Q1010 NOSIG
EDDF 010350Z 21002KT CAVOK 14/12 Q1010 NOSIG
EDDF 010320Z 22003KT 9999 FEW045 14/12 Q1010 NOSIG
EDDF 010250Z 19005KT CAVOK 14/12 Q1010 NOSIG
EDDF 010220Z 19003KT 9999 FEW045 15/12 Q1010 NOSIG
EDDF 010150Z 24003KT 9999 BKN046 15/12 Q1010 NOSIG
EDDF 010120Z 25004KT CAVOK 15/12 Q1010 NOSIG
EDDF 010050Z 20005KT CAVOK 15/12 Q1010 NOSIG
EDDF 010020Z 20004KT CAVOK 16/12 Q1010 NOSIG
EDDF 302350Z 19004KT CAVOK 17/12 Q1011 NOSIG
EDDF 302320Z 20005KT CAVOK 17/12 Q1011 NOSIG
EDDF 302250Z 21006KT CAVOK 18/12 Q1011 NOSIG
EDDF 302220Z 20005KT CAVOK 17/12 Q1011 NOSIG
EDDF 302150Z 20007KT CAVOK 18/11 Q1011 NOSIG
EDDF 302120Z 22008KT CAVOK 19/11 Q1011 NOSIG
EDDF 302050Z 22009KT CAVOK 19/11 Q1011 NOSIG
EDDF 302020Z 22010KT CAVOK 20/11 Q1011 NOSIG
EDDF 301950Z 24011KT CAVOK 20/11 Q1011 NOSIG
EDDF 301920Z 23010KT CAVOK 21/11 Q1011 NOSIG
EDDF 301850Z 24009KT CAVOK 21/10 Q1011 NOSIG
EDDF 301820Z 24013KT CAVOK 22/10 Q1011 NOSIG
EDDF 301750Z 22013KT CAVOK 22/10 Q1011 NOSIG
EDDF 301720Z 22014KT CAVOK 22/11 Q1011 NOSIG
EDDF 301650Z 22015KT CAVOK 22/10 Q1011 NOSIG
EDDF 301620Z 22015KT 9999 FEW048 23/10 Q1011 NOSIG
EDDF 301550Z 22016KT 9999 SCT048 23/11 Q1011 NOSIG
EDDF 301520Z 23012KT 200V260 9999 SCT048 22/10 Q1011 NOSIG
EDDF 301450Z 24016KT 9999 SCT048 22/11 Q1011 NOSIG
EDDF 301420Z 23016KT 200V260 9999 FEW045 22/11 Q1012 TEMPO 23015G25KT
EDDF 301350Z 23014KT 190V280 9999 FEW045 22/11 Q1012 TEMPO 23015G25KT
EDDF 301320Z 22013KT 9999 FEW048 21/10 Q1012 TEMPO 23015G25KT
EDDF 301250Z 21010KT 180V240 9999 FEW048 20/10 Q1012 TEMPO 23015G25KT
EDDF 301220Z 23012KT 9999 FEW048 21/10 Q1012 TEMPO 23015G25KT